Terminal Aerodrome Forecast
Issued by NWS Grand Rapids, MI

Home | Current Version | Previous Version | Text Only | Print | Product List | Glossary On
Versions: 1 2 3 4 5 6 7 8 9 10 11 12 13 14 15 16 17 18 19 20 21 22 23 24 25
450
FTUS43 KGRR 061224 AAB
TAFGRR
TAF AMD
KGRR 061224Z 0612/0712 20007KT 6SM BR SCT060 OVC070
     FM061300 21008KT 5SM BR OVC070
     FM061800 24012KT P6SM OVC025
     FM070300 20006KT P6SM OVC050
     FM070700 20010KT P6SM OVC100=

USA.gov is the U.S. government's official web portal to all federal, state and local government web resources and services.